createdAt,value
2023-05-08T00:00:48.426Z,103137.50
2023-05-08T00:03:55.163Z,103135.66
2023-05-08T00:07:02.369Z,103139.97
2023-05-08T00:10:09.109Z,103152.38
2023-05-08T00:13:14.812Z,103127.34
2023-05-08T00:16:20.229Z,103132.78
2023-05-08T00:19:25.730Z,103139.97
2023-05-08T00:22:32.232Z,103132.97
2023-05-08T00:25:37.296Z,103144.69
2023-05-08T00:28:42.415Z,103149.44
2023-05-08T00:31:47.510Z,103148.13
2023-05-08T00:34:52.663Z,103152.50
2023-05-08T00:37:59.105Z,103149.88
2023-05-08T00:41:04.456Z,103147.63
2023-05-08T00:44:10.307Z,103158.47
2023-05-08T00:47:15.808Z,103147.41
2023-05-08T00:50:21.313Z,103150.78
2023-05-08T00:53:29.065Z,103152.47
2023-05-08T00:56:34.713Z,103141.44
2023-05-08T00:59:41.507Z,103151.53
2023-05-08T01:02:46.965Z,103163.09
2023-05-08T01:05:52.152Z,103147.31
2023-05-08T01:08:58.947Z,103159.91
2023-05-08T01:12:11.882Z,103164.31
2023-05-08T01:15:19.732Z,103150.56
2023-05-08T01:18:29.881Z,103158.19
2023-05-08T01:21:40.497Z,103162.50
2023-05-08T01:25:05.849Z,103167.44
2023-05-08T01:28:32.071Z,103169.69
2023-05-08T01:31:49.090Z,103157.03
2023-05-08T01:35:05.118Z,103164.50
2023-05-08T01:38:16.762Z,103175.63
2023-05-08T01:41:28.454Z,103170.59
2023-05-08T01:44:37.793Z,103167.97
2023-05-08T01:47:43.273Z,103177.19
2023-05-08T01:50:54.281Z,103176.75
2023-05-08T01:54:02.260Z,103176.16
2023-05-08T01:57:09.747Z,103170.91
2023-05-08T02:00:17.417Z,103169.31
2023-05-08T02:03:23.968Z,103169.34
2023-05-08T02:06:31.250Z,103171.72
2023-05-08T02:09:37.706Z,103173.31
2023-05-08T02:12:43.248Z,103169.34
2023-05-08T02:15:49.977Z,103170.91
2023-05-08T02:18:56.392Z,103167.44
2023-05-08T02:22:03.466Z,103172.84
2023-05-08T02:25:09.458Z,103167.41
2023-05-08T02:28:17.073Z,103165.00
2023-05-08T02:31:23.468Z,103172.81
2023-05-08T02:34:29.168Z,103174.00
2023-05-08T02:37:36.342Z,103180.88
2023-05-08T02:40:45.382Z,103178.03
2023-05-08T02:43:51.975Z,103178.66
2023-05-08T02:47:00.289Z,103178.06
2023-05-08T02:50:08.458Z,103176.44
2023-05-08T02:53:20.188Z,103175.03
2023-05-08T02:56:33.084Z,103176.78
2023-05-08T02:59:41.421Z,103170.00
2023-05-08T03:02:52.224Z,103174.28
2023-05-08T03:05:58.971Z,103172.81
2023-05-08T03:09:06.150Z,103167.59
2023-05-08T03:12:16.589Z,103166.97
2023-05-08T03:15:25.530Z,103164.38
2023-05-08T03:18:36.411Z,103169.31
2023-05-08T03:21:43.798Z,103162.47
2023-05-08T03:24:51.049Z,103164.78
2023-05-08T03:27:56.577Z,103165.06
2023-05-08T03:31:02.991Z,103165.81
2023-05-08T03:34:09.174Z,103160.81
2023-05-08T03:37:14.614Z,103159.16
2023-05-08T03:40:21.998Z,103170.31
2023-05-08T03:43:27.375Z,103168.69
2023-05-08T03:46:33.682Z,103171.03
2023-05-08T03:49:40.261Z,103173.00
2023-05-08T03:52:45.593Z,103168.91
2023-05-08T03:55:52.089Z,103175.06
2023-05-08T03:59:04.525Z,103180.66
2023-05-08T04:02:17.980Z,103169.72
2023-05-08T04:05:27.581Z,103175.03
2023-05-08T04:08:36.525Z,103170.75
2023-05-08T04:11:49.618Z,103163.41
2023-05-08T04:14:57.753Z,103171.53
2023-05-08T04:18:07.987Z,103166.69
2023-05-08T04:21:13.691Z,103165.78
2023-05-08T04:24:19.624Z,103166.84
2023-05-08T04:27:27.080Z,103167.03
2023-05-08T04:30:33.005Z,103166.09
2023-05-08T04:33:38.871Z,103166.28
2023-05-08T04:36:44.801Z,103169.25
2023-05-08T04:39:52.728Z,103166.94
2023-05-08T04:43:00.315Z,103169.94
2023-05-08T04:46:06.660Z,103172.41
2023-05-08T04:49:12.909Z,103165.56
2023-05-08T04:52:18.069Z,103167.59
2023-05-08T04:55:23.373Z,103166.91
2023-05-08T04:58:29.877Z,103173.59
2023-05-08T05:01:36.448Z,103173.72
2023-05-08T05:04:41.935Z,103174.09
2023-05-08T05:07:47.253Z,103172.09
2023-05-08T05:10:52.620Z,103180.31
2023-05-08T05:13:59.343Z,103176.47
2023-05-08T05:17:07.178Z,103172.34
2023-05-08T05:20:15.030Z,103171.53
2023-05-08T05:23:20.278Z,103168.28
2023-05-08T05:26:25.469Z,103168.47
2023-05-08T05:29:32.528Z,103169.50
2023-05-08T05:32:38.307Z,103168.94
2023-05-08T05:35:44.678Z,103169.09
2023-05-08T05:38:49.881Z,103165.13
2023-05-08T05:41:55.054Z,103163.50
2023-05-08T05:45:02.234Z,103170.50
2023-05-08T05:48:09.324Z,103159.75
2023-05-08T05:51:14.653Z,103162.53
2023-05-08T05:54:19.793Z,103156.78
2023-05-08T05:57:25.038Z,103155.22
2023-05-08T06:00:31.852Z,103162.38
2023-05-08T06:03:39.270Z,103162.66
2023-05-08T06:06:45.418Z,103152.09
2023-05-08T06:09:51.287Z,103153.06
2023-05-08T06:12:57.109Z,103149.22
2023-05-08T06:16:04.340Z,103146.81
2023-05-08T06:19:09.992Z,103145.34
2023-05-08T06:22:15.081Z,103147.09
2023-05-08T06:25:20.298Z,103153.94
2023-05-08T06:28:26.232Z,103148.16
2023-05-08T06:31:32.796Z,103140.66
2023-05-08T06:34:38.088Z,103136.41
2023-05-08T06:37:43.102Z,103139.06
2023-05-08T06:40:50.156Z,103140.88
2023-05-08T06:43:55.238Z,103132.47
2023-05-08T06:47:01.813Z,103136.09
2023-05-08T06:50:08.087Z,103132.72
2023-05-08T06:53:13.437Z,103134.47
2023-05-08T06:56:18.586Z,103125.13
2023-05-08T06:59:24.447Z,103122.47
2023-05-08T07:02:30.949Z,103120.00
2023-05-08T07:05:36.265Z,103129.47
2023-05-08T07:08:41.639Z,103124.41
2023-05-08T07:11:48.212Z,103115.91
2023-05-08T07:14:54.697Z,103114.16
2023-05-08T07:18:02.586Z,103113.31
2023-05-08T07:21:08.006Z,103105.66
2023-05-08T07:24:15.362Z,103110.78
2023-05-08T07:27:20.527Z,103114.25
2023-05-08T07:30:26.462Z,103100.56
2023-05-08T07:33:34.164Z,103108.25
2023-05-08T07:36:40.248Z,103103.13
2023-05-08T07:39:45.289Z,103105.63
2023-05-08T07:42:50.480Z,103099.66
2023-05-08T07:45:55.884Z,103097.94
2023-05-08T07:49:02.371Z,103095.41
2023-05-08T07:52:07.453Z,103098.78
2023-05-08T07:55:14.088Z,103094.47
2023-05-08T07:58:19.204Z,103097.03
2023-05-08T08:01:24.290Z,103094.47
2023-05-08T08:04:30.782Z,103095.28
2023-05-08T08:07:36.098Z,103090.13
2023-05-08T08:10:42.042Z,103078.09
2023-05-08T08:13:47.159Z,103084.06
2023-05-08T08:16:52.283Z,103080.63
2023-05-08T08:19:59.166Z,103077.19
2023-05-08T08:23:04.393Z,103072.00
2023-05-08T08:26:11.307Z,103063.41
2023-05-08T08:29:16.328Z,103071.13
2023-05-08T08:32:21.546Z,103064.25
2023-05-08T08:35:29.705Z,103060.81
2023-05-08T08:38:34.916Z,103065.94
2023-05-08T08:41:40.703Z,103055.56
2023-05-08T08:44:46.100Z,103053.84
2023-05-08T08:47:53.613Z,103057.97
2023-05-08T08:51:02.009Z,103046.84
2023-05-08T08:54:10.751Z,103052.94
2023-05-08T08:57:17.124Z,103052.88
2023-05-08T09:00:24.056Z,103048.53
2023-05-08T09:03:30.087Z,103039.84
2023-05-08T09:06:39.033Z,103038.97
2023-05-08T09:09:45.450Z,103038.03
2023-05-08T09:12:50.640Z,103039.75
2023-05-08T09:15:56.170Z,103029.38
2023-05-08T09:19:01.989Z,103024.16
2023-05-08T09:22:10.756Z,103031.81
2023-05-08T09:25:16.136Z,103028.41
2023-05-08T09:28:23.693Z,103029.38
2023-05-08T09:31:36.840Z,103030.22
2023-05-08T09:34:42.747Z,103020.50
2023-05-08T09:37:49.247Z,103015.31
2023-05-08T09:41:08.717Z,103009.31
2023-05-08T09:44:15.940Z,103007.59
2023-05-08T09:47:23.167Z,103009.16
2023-05-08T09:50:28.478Z,103010.03
2023-05-08T09:53:35.101Z,103008.97
2023-05-08T09:56:41.312Z,103007.25
2023-05-08T09:59:46.481Z,102991.00
2023-05-08T10:02:59.370Z,102998.50
2023-05-08T10:06:14.803Z,102994.00
2023-05-08T10:09:21.534Z,102990.78
2023-05-08T10:12:27.070Z,102992.53
2023-05-08T10:15:33.090Z,102989.09
2023-05-08T10:18:40.086Z,102994.25
2023-05-08T10:21:47.914Z,102986.38
2023-05-08T10:24:56.099Z,102986.44
2023-05-08T10:28:08.526Z,102987.25
2023-05-08T10:31:17.158Z,102988.75
2023-05-08T10:34:24.734Z,102987.06
2023-05-08T10:37:31.989Z,102983.47
2023-05-08T10:40:39.673Z,102977.50
2023-05-08T10:43:45.878Z,102974.63
2023-05-08T10:46:54.753Z,102976.97
2023-05-08T10:50:03.463Z,102977.81
2023-05-08T10:53:11.969Z,102970.84
2023-05-08T10:56:18.546Z,102972.78
2023-05-08T10:59:23.955Z,102970.03
2023-05-08T11:02:30.456Z,102959.47
2023-05-08T11:05:48.109Z,102966.00
2023-05-08T11:08:54.885Z,102974.03
2023-05-08T11:12:22.586Z,102972.25
2023-05-08T11:15:38.617Z,102963.63
2023-05-08T11:19:22.563Z,102956.94
2023-05-08T11:22:29.247Z,102960.78
2023-05-08T11:25:44.434Z,102946.94
2023-05-08T11:28:59.574Z,102962.53
2023-05-08T11:32:04.816Z,102955.44
2023-05-08T11:35:11.358Z,102951.84
2023-05-08T11:38:36.137Z,102943.84
2023-05-08T11:41:41.553Z,102952.63
2023-05-08T11:44:48.530Z,102944.88
2023-05-08T11:48:02.922Z,102943.38
2023-05-08T11:51:08.257Z,102952.81
2023-05-08T11:54:15.802Z,102948.41
2023-05-08T11:57:21.103Z,102940.84
2023-05-08T12:00:27.720Z,102944.97
2023-05-08T12:03:33.101Z,102932.78
2023-05-08T12:06:39.978Z,102922.81
2023-05-08T12:09:45.058Z,102933.31
2023-05-08T12:12:50.206Z,102923.78
2023-05-08T12:15:59.106Z,102915.06
2023-05-08T12:19:04.291Z,102928.66
2023-05-08T12:22:11.142Z,102926.03
2023-05-08T12:25:17.549Z,102927.81
2023-05-08T12:28:22.964Z,102915.97
2023-05-08T12:31:29.749Z,102927.00
2023-05-08T12:34:35.365Z,102926.13
2023-05-08T12:37:40.934Z,102914.56
2023-05-08T12:40:49.188Z,102905.94
2023-05-08T12:43:54.395Z,102915.34
2023-05-08T12:47:00.978Z,102904.88
2023-05-08T12:50:07.353Z,102909.84
2023-05-08T12:53:15.621Z,102909.91
2023-05-08T12:56:24.337Z,102898.59
2023-05-08T12:59:34.086Z,102896.09
2023-05-08T13:02:47.581Z,102896.81
2023-05-08T13:05:56.461Z,102896.75
2023-05-08T13:09:01.686Z,102896.97
2023-05-08T13:12:07.951Z,102902.53
2023-05-08T13:15:13.436Z,102894.38
2023-05-08T13:18:20.877Z,102885.56
2023-05-08T13:21:27.815Z,102885.38
2023-05-08T13:24:33.391Z,102889.53
2023-05-08T13:27:38.427Z,102896.75
2023-05-08T13:30:44.039Z,102888.44
2023-05-08T13:33:50.627Z,102896.78
2023-05-08T13:36:55.683Z,102889.09
2023-05-08T13:40:00.928Z,102880.38
2023-05-08T13:43:06.132Z,102884.81
2023-05-08T13:46:11.985Z,102884.00
2023-05-08T13:49:19.901Z,102883.97
2023-05-08T13:52:25.172Z,102893.38
2023-05-08T13:55:30.281Z,102882.47
2023-05-08T13:58:35.534Z,102889.44
2023-05-08T14:01:40.681Z,102893.41
2023-05-08T14:04:47.150Z,102887.66
2023-05-08T14:07:52.285Z,102879.78
2023-05-08T14:10:57.375Z,102875.72
2023-05-08T14:14:02.435Z,102880.97
2023-05-08T14:17:08.053Z,102873.13
2023-05-08T14:20:16.604Z,102872.34
2023-05-08T14:23:21.791Z,102868.13
2023-05-08T14:26:27.204Z,102877.59
2023-05-08T14:29:32.356Z,102881.56
2023-05-08T14:32:37.690Z,102874.28
2023-05-08T14:35:44.255Z,102879.19
2023-05-08T14:38:49.420Z,102877.09
2023-05-08T14:42:18.420Z,102869.28
2023-05-08T14:45:20.318Z,102871.13
2023-05-08T14:48:25.424Z,102867.13
2023-05-08T14:51:32.163Z,102879.25
2023-05-08T14:54:38.658Z,102869.81
2023-05-08T14:57:43.931Z,102865.09
2023-05-08T15:00:49.251Z,102861.84
2023-05-08T15:03:54.473Z,102860.00
2023-05-08T15:07:01.018Z,102859.28
2023-05-08T15:10:06.989Z,102856.84
2023-05-08T15:13:13.055Z,102865.63
2023-05-08T15:16:18.205Z,102861.53
2023-05-08T15:19:24.437Z,102868.22
2023-05-08T15:22:30.953Z,102860.63
2023-05-08T15:25:36.152Z,102855.78
2023-05-08T15:28:41.687Z,102855.53
2023-05-08T15:31:46.907Z,102860.66
2023-05-08T15:34:52.156Z,102850.72
2023-05-08T15:37:58.624Z,102848.00
2023-05-08T15:41:03.644Z,102847.19
2023-05-08T15:44:08.788Z,102845.47
2023-05-08T15:47:14.006Z,102845.00
2023-05-08T15:50:19.178Z,102837.03
2023-05-08T15:53:26.153Z,102839.94
2023-05-08T15:56:31.355Z,102845.41
2023-05-08T15:59:37.761Z,102838.47
2023-05-08T16:02:42.959Z,102847.19
2023-05-08T16:05:48.118Z,102848.25
2023-05-08T16:08:54.880Z,102837.38
2023-05-08T16:11:59.983Z,102842.28
2023-05-08T16:15:05.570Z,102832.91
2023-05-08T16:18:13.865Z,102838.91
2023-05-08T16:21:19.030Z,102838.16
2023-05-08T16:24:25.570Z,102841.88
2023-05-08T16:27:37.001Z,102828.38
2023-05-08T16:30:42.272Z,102831.03
2023-05-08T16:33:47.436Z,102830.47
2023-05-08T16:36:52.581Z,102839.16
2023-05-08T16:39:59.118Z,102831.47
2023-05-08T16:43:04.245Z,102833.22
2023-05-08T16:46:10.733Z,102824.72
2023-05-08T16:49:16.493Z,102837.81
2023-05-08T16:52:21.789Z,102837.75
2023-05-08T16:55:28.746Z,102835.31
2023-05-08T16:58:34.446Z,102824.19
2023-05-08T17:01:39.802Z,102829.25
2023-05-08T17:04:46.687Z,102824.31
2023-05-08T17:07:51.935Z,102824.06
2023-05-08T17:10:58.590Z,102816.41
2023-05-08T17:14:03.706Z,102804.34
2023-05-08T17:17:09.123Z,102801.06
2023-05-08T17:20:15.805Z,102812.44
2023-05-08T17:23:21.232Z,102809.81
2023-05-08T17:26:27.929Z,102804.78
2023-05-08T17:29:33.292Z,102801.38
2023-05-08T17:32:39.060Z,102793.97
2023-05-08T17:35:46.522Z,102798.97
2023-05-08T17:38:52.101Z,102799.13
2023-05-08T17:41:58.703Z,102805.25
2023-05-08T17:45:04.920Z,102802.78
2023-05-08T17:48:13.193Z,102810.47
2023-05-08T17:51:18.381Z,102812.19
2023-05-08T17:54:23.563Z,102809.63
2023-05-08T17:57:29.932Z,102809.66
2023-05-08T18:00:37.715Z,102810.59
2023-05-08T18:03:45.016Z,102802.94
2023-05-08T18:06:52.637Z,102812.41
2023-05-08T18:10:00.662Z,102809.94
2023-05-08T18:13:10.297Z,102821.06
2023-05-08T18:16:17.079Z,102816.72
2023-05-08T18:19:25.512Z,102810.78
2023-05-08T18:22:30.641Z,102820.22
2023-05-08T18:25:37.270Z,102815.06
2023-05-08T18:28:44.206Z,102806.53
2023-05-08T18:31:49.905Z,102805.66
2023-05-08T18:34:55.084Z,102807.41
2023-05-08T18:38:00.339Z,102810.03
2023-05-08T18:41:06.349Z,102832.31
2023-05-08T18:44:17.086Z,102824.63
2023-05-08T18:47:22.313Z,102825.44
2023-05-08T18:50:27.599Z,102831.47
2023-05-08T18:53:33.242Z,102830.63
2023-05-08T18:56:39.128Z,102841.75
2023-05-08T18:59:46.061Z,102838.34
2023-05-08T19:02:51.660Z,102837.47
2023-05-08T19:05:57.190Z,102834.91
2023-05-08T19:09:02.443Z,102836.63
2023-05-08T19:12:07.723Z,102839.19
2023-05-08T19:15:14.833Z,102833.19
2023-05-08T19:18:20.252Z,102831.44
2023-05-08T19:21:25.481Z,102828.03
2023-05-08T19:24:33.013Z,102828.00
2023-05-08T19:27:38.276Z,102833.97
2023-05-08T19:30:45.013Z,102824.53
2023-05-08T19:33:50.895Z,102829.69
2023-05-08T19:36:57.063Z,102827.97
2023-05-08T19:40:04.647Z,102828.81
2023-05-08T19:43:09.734Z,102820.28
2023-05-08T19:46:16.466Z,102832.13
2023-05-08T19:49:21.328Z,102827.06
2023-05-08T19:52:26.435Z,102830.41
2023-05-08T19:55:31.525Z,102835.50
2023-05-08T19:58:36.705Z,102830.34
2023-05-08T20:01:43.413Z,102826.91
2023-05-08T20:05:14.417Z,102826.06
2023-05-08T20:08:13.725Z,102826.00
2023-05-08T20:11:18.946Z,102825.19
2023-05-08T20:14:24.033Z,102820.03
2023-05-08T20:17:30.453Z,102817.47
2023-05-08T20:20:35.891Z,102810.69
2023-05-08T20:23:41.298Z,102806.38
2023-05-08T20:26:46.410Z,102809.72
2023-05-08T20:29:51.429Z,102815.75
2023-05-08T20:33:04.583Z,102804.53
2023-05-08T20:36:10.063Z,102808.00
2023-05-08T20:39:15.902Z,102804.59
2023-05-08T20:42:21.041Z,102801.22
2023-05-08T20:45:26.132Z,102807.06
2023-05-08T20:48:32.604Z,102799.44
2023-05-08T20:51:37.738Z,102794.13
2023-05-08T20:54:44.464Z,102783.97
2023-05-08T20:57:52.693Z,102782.25
2023-05-08T21:00:57.804Z,102783.06
2023-05-08T21:04:04.248Z,102780.44
2023-05-08T21:07:11.425Z,102780.47
2023-05-08T21:10:16.749Z,102786.34
2023-05-08T21:13:22.267Z,102791.47
2023-05-08T21:16:27.397Z,102783.81
2023-05-08T21:19:34.035Z,102782.94
2023-05-08T21:22:39.273Z,102778.66
2023-05-08T21:25:53.156Z,102780.28
2023-05-08T21:28:58.714Z,102774.31
2023-05-08T21:32:03.783Z,102771.66
2023-05-08T21:35:11.465Z,102776.72
2023-05-08T21:38:16.752Z,102779.97
2023-05-08T21:41:21.797Z,102761.31
2023-05-08T21:44:26.877Z,102775.00
2023-05-08T21:47:32.013Z,102773.09
2023-05-08T21:50:38.701Z,102776.41
2023-05-08T21:53:43.699Z,102775.75
2023-05-08T21:56:48.846Z,102768.00
2023-05-08T21:59:53.971Z,102777.22
2023-05-08T22:02:59.210Z,102779.66
2023-05-08T22:06:06.034Z,102767.72
2023-05-08T22:09:11.252Z,102779.56
2023-05-08T22:12:16.460Z,102771.28
2023-05-08T22:15:29.611Z,102774.63
2023-05-08T22:18:35.829Z,102767.06
2023-05-08T22:21:43.376Z,102779.72
2023-05-08T22:24:48.514Z,102770.25
2023-05-08T22:27:53.573Z,102775.34
2023-05-08T22:30:58.550Z,102768.41
2023-05-08T22:34:03.722Z,102772.88
2023-05-08T22:37:10.221Z,102771.94
2023-05-08T22:40:15.708Z,102774.28
2023-05-08T22:43:21.150Z,102769.28
2023-05-08T22:46:26.480Z,102770.97
2023-05-08T22:49:31.718Z,102765.88
2023-05-08T22:52:38.465Z,102764.31
2023-05-08T22:55:43.481Z,102765.88
2023-05-08T22:58:48.627Z,102759.06
2023-05-08T23:01:53.791Z,102754.13
2023-05-08T23:04:58.911Z,102754.00
2023-05-08T23:08:05.461Z,102757.41
2023-05-08T23:11:11.452Z,102764.03
2023-05-08T23:14:16.623Z,102747.16
2023-05-08T23:17:21.784Z,102742.94
2023-05-08T23:20:27.275Z,102743.03
2023-05-08T23:23:33.729Z,102747.16
2023-05-08T23:26:41.377Z,102739.53
2023-05-08T23:29:47.389Z,102741.22
2023-05-08T23:32:52.386Z,102742.88
2023-05-08T23:35:57.649Z,102730.16
2023-05-08T23:39:04.104Z,102732.75
2023-05-08T23:42:09.362Z,102736.84
2023-05-08T23:45:14.854Z,102733.44
2023-05-08T23:48:20.141Z,102722.22
2023-05-08T23:51:25.454Z,102737.69
2023-05-08T23:54:31.981Z,102735.91
2023-05-08T23:57:37.119Z,102731.66
